createdAt,value
2017-06-08T00:00:30.250Z,68.22
2017-06-08T00:01:10.680Z,68.03
2017-06-08T00:01:51.057Z,68.03
2017-06-08T00:02:31.439Z,68.03
2017-06-08T00:03:11.871Z,67.93
2017-06-08T00:03:52.248Z,68.41
2017-06-08T00:04:32.710Z,68.32
2017-06-08T00:05:13.153Z,67.93
2017-06-08T00:05:53.574Z,68.03
2017-06-08T00:06:34.001Z,68.12
2017-06-08T00:07:14.408Z,68.41
2017-06-08T00:07:54.794Z,68.12
2017-06-08T00:08:35.195Z,67.99
2017-06-08T00:09:15.572Z,68.12
2017-06-08T00:09:56.056Z,68.12
2017-06-08T00:10:36.493Z,68.7
2017-06-08T00:11:16.910Z,68.12
2017-06-08T00:11:57.328Z,68.12
2017-06-08T00:12:37.746Z,68.57
2017-06-08T00:13:18.118Z,68.12
2017-06-08T00:13:58.576Z,68.22
2017-06-08T00:14:38.977Z,68.12
2017-06-08T00:15:19.307Z,68.18
2017-06-08T00:15:59.796Z,68.22
2017-06-08T00:16:40.231Z,68.12
2017-06-08T00:17:20.640Z,68.12
2017-06-08T00:18:01.091Z,68.32
2017-06-08T00:18:41.435Z,68.22
2017-06-08T00:19:21.876Z,68.22
2017-06-08T00:20:02.322Z,68.32
2017-06-08T00:20:42.731Z,68.22
2017-06-08T00:21:23.150Z,68.22
2017-06-08T00:22:03.535Z,68.32
2017-06-08T00:22:44.021Z,68.12
2017-06-08T00:23:24.388Z,68.18
2017-06-08T00:24:04.797Z,68.03
2017-06-08T00:24:45.156Z,68.32
2017-06-08T00:25:25.640Z,68.32
2017-06-08T00:26:06.010Z,68.12
2017-06-08T00:26:46.416Z,68.22
2017-06-08T00:27:26.850Z,68.32
2017-06-08T00:28:07.204Z,68.03
2017-06-08T00:28:47.641Z,68.22
2017-06-08T00:29:28.017Z,67.83
2017-06-08T00:30:08.428Z,68.41
2017-06-08T00:30:48.889Z,68.03
2017-06-08T00:31:29.283Z,68.41
2017-06-08T00:32:09.681Z,68.12
2017-06-08T00:32:50.146Z,68.09
2017-06-08T00:33:30.544Z,68.28
2017-06-08T00:34:10.965Z,68.12
2017-06-08T00:34:51.358Z,68.18
2017-06-08T00:35:31.768Z,68.18
2017-06-08T00:36:14.770Z,68.22
2017-06-08T00:36:55.230Z,68.18
2017-06-08T00:37:35.594Z,68.28
2017-06-08T00:38:16.060Z,68.18
2017-06-08T00:38:56.436Z,68.66
2017-06-08T00:39:36.844Z,68.47
2017-06-08T00:40:17.282Z,68.76
2017-06-08T00:40:57.666Z,68.38
2017-06-08T00:41:38.069Z,68.66
2017-06-08T00:42:18.434Z,68.18
2017-06-08T00:42:58.876Z,67.99
2017-06-08T00:43:39.262Z,67.99
2017-06-08T00:44:19.753Z,68.57
2017-06-08T00:45:00.147Z,68.18
2017-06-08T00:45:40.528Z,68.09
2017-06-08T00:46:20.933Z,68.09
2017-06-08T00:47:01.357Z,68.47
2017-06-08T00:47:41.780Z,68.57
2017-06-08T00:48:22.169Z,68.57
2017-06-08T00:49:02.584Z,68.57
2017-06-08T00:49:42.968Z,68.57
2017-06-08T00:50:23.364Z,68.47
2017-06-08T00:51:03.782Z,68.47
2017-06-08T00:51:44.199Z,68.66
2017-06-08T00:52:24.602Z,68.47
2017-06-08T00:53:05.050Z,68.47
2017-06-08T00:53:45.451Z,68.47
2017-06-08T00:54:25.863Z,68.66
2017-06-08T00:55:06.284Z,68.47
2017-06-08T00:55:46.723Z,68.76
2017-06-08T00:56:27.240Z,68.38
2017-06-08T00:57:07.648Z,68.66
2017-06-08T00:57:48.022Z,68.47
2017-06-08T00:58:28.458Z,68.18
2017-06-08T00:59:08.891Z,68.76
2017-06-08T00:59:49.275Z,68.57
2017-06-08T01:00:29.685Z,68.76
2017-06-08T01:01:10.074Z,68.47
2017-06-08T01:01:50.516Z,68.57
2017-06-08T01:02:30.911Z,68.38
2017-06-08T01:03:11.310Z,68.66
2017-06-08T01:03:51.737Z,68.85
2017-06-08T01:04:32.120Z,68.85
2017-06-08T01:05:12.544Z,68.66
2017-06-08T01:05:52.980Z,68.57
2017-06-08T01:06:33.386Z,68.28
2017-06-08T01:07:13.799Z,68.66
2017-06-08T01:07:54.187Z,68.66
2017-06-08T01:08:34.664Z,68.09
2017-06-08T01:09:15.024Z,68.85
2017-06-08T01:09:55.418Z,68.66
2017-06-08T01:10:35.816Z,68.18
2017-06-08T01:11:16.223Z,68.47
2017-06-08T01:11:56.732Z,68.47
2017-06-08T01:12:37.118Z,68.09
2017-06-08T01:13:17.499Z,68.57
2017-06-08T01:13:57.943Z,68.18
2017-06-08T01:14:38.364Z,68.66
2017-06-08T01:15:18.743Z,68.47
2017-06-08T01:15:59.093Z,68.47
2017-06-08T01:16:39.566Z,68.85
2017-06-08T01:17:19.906Z,68.38
2017-06-08T01:18:00.292Z,68.47
2017-06-08T01:18:40.721Z,68.57
2017-06-08T01:19:21.099Z,68.76
2017-06-08T01:20:01.510Z,68.38
2017-06-08T01:20:41.922Z,68.57
2017-06-08T01:21:22.321Z,68.57
2017-06-08T01:22:02.682Z,68.57
2017-06-08T01:22:43.124Z,68.57
2017-06-08T01:23:23.480Z,68.47
2017-06-08T01:24:03.900Z,68.47
2017-06-08T01:24:44.311Z,68.38
2017-06-08T01:25:24.704Z,68.66
2017-06-08T01:26:05.094Z,68.57
2017-06-08T01:26:45.542Z,68.47
2017-06-08T01:27:25.993Z,68.38
2017-06-08T01:28:06.415Z,68.85
2017-06-08T01:28:46.805Z,68.47
2017-06-08T01:29:27.263Z,68.47
2017-06-08T01:30:07.663Z,68.38
2017-06-08T01:30:48.114Z,68.47
2017-06-08T01:31:28.564Z,68.38
2017-06-08T01:32:08.959Z,68.47
2017-06-08T01:32:49.376Z,68.51
2017-06-08T01:33:29.827Z,68.57
2017-06-08T01:34:10.223Z,68.12
2017-06-08T01:34:50.620Z,68.03
2017-06-08T01:35:31.031Z,68.09
2017-06-08T01:36:11.437Z,67.9
2017-06-08T01:36:51.812Z,68.22
2017-06-08T01:37:32.234Z,67.9
2017-06-08T01:38:12.652Z,67.99
2017-06-08T01:38:53.061Z,67.99
2017-06-08T01:39:33.501Z,68.57
2017-06-08T01:40:13.910Z,68.28
2017-06-08T01:40:54.337Z,68.38
2017-06-08T01:41:34.739Z,68.47
2017-06-08T01:42:15.108Z,68.38
2017-06-08T01:42:55.524Z,68.47
2017-06-08T01:43:35.971Z,68.38
2017-06-08T01:44:16.407Z,68.85
2017-06-08T01:44:56.881Z,68.38
2017-06-08T01:45:37.382Z,68.47
2017-06-08T01:46:17.716Z,68.38
2017-06-08T01:46:58.067Z,68.57
2017-06-08T01:47:38.495Z,68.47
2017-06-08T01:48:18.902Z,68.57
2017-06-08T01:48:59.350Z,68.85
2017-06-08T01:49:39.718Z,68.85
2017-06-08T01:50:20.145Z,68.57
2017-06-08T01:51:00.563Z,68.76
2017-06-08T01:51:40.995Z,68.57
2017-06-08T01:52:21.453Z,68.57
2017-06-08T01:53:01.840Z,68.38
2017-06-08T01:53:42.237Z,68.09
2017-06-08T01:54:22.652Z,68.57
2017-06-08T01:55:05.584Z,68.66
2017-06-08T01:55:46.000Z,68.85
2017-06-08T01:56:26.435Z,68.47
2017-06-08T01:57:06.880Z,68.95
2017-06-08T01:57:47.265Z,68.76
2017-06-08T01:58:27.637Z,68.76
2017-06-08T01:59:08.036Z,68.66
2017-06-08T01:59:48.480Z,69.04
2017-06-08T02:00:28.885Z,68.95
2017-06-08T02:01:09.323Z,69.04
2017-06-08T02:01:49.707Z,68.95
2017-06-08T02:02:30.179Z,68.95
2017-06-08T02:03:10.593Z,68.85
2017-06-08T02:03:50.974Z,69.14
2017-06-08T02:04:31.386Z,69.04
2017-06-08T02:05:11.855Z,68.85
2017-06-08T02:05:52.259Z,69.62
2017-06-08T02:06:32.612Z,69.52
2017-06-08T02:07:13.045Z,69.52
2017-06-08T02:07:53.438Z,69.14
2017-06-08T02:08:33.844Z,69.52
2017-06-08T02:09:14.288Z,69.33
2017-06-08T02:09:54.690Z,69.04
2017-06-08T02:10:35.142Z,69.23
2017-06-08T02:11:15.584Z,69.33
2017-06-08T02:11:55.965Z,69.04
2017-06-08T02:12:36.408Z,69.14
2017-06-08T02:13:16.799Z,69.04
2017-06-08T02:13:57.189Z,69.04
2017-06-08T02:14:37.607Z,69.43
2017-06-08T02:15:18.027Z,69.14
2017-06-08T02:15:58.413Z,69.52
2017-06-08T02:16:38.868Z,69.52
2017-06-08T02:17:19.252Z,69.33
2017-06-08T02:17:59.651Z,69.52
2017-06-08T02:18:40.082Z,69.71
2017-06-08T02:19:20.481Z,69.23
2017-06-08T02:20:00.880Z,69.33
2017-06-08T02:20:41.359Z,69.33
2017-06-08T02:21:21.688Z,69.33
2017-06-08T02:22:02.145Z,69.52
2017-06-08T02:22:42.534Z,69.52
2017-06-08T02:23:22.969Z,69.52
2017-06-08T02:24:03.297Z,69.52
2017-06-08T02:24:43.734Z,69.14
2017-06-08T02:25:24.200Z,69.62
2017-06-08T02:26:04.518Z,69.14
2017-06-08T02:26:44.950Z,69.33
2017-06-08T02:27:25.347Z,69.33
2017-06-08T02:28:05.749Z,69.23
2017-06-08T02:28:46.176Z,69.33
2017-06-08T02:29:26.660Z,69.43
2017-06-08T02:30:07.026Z,69.43
2017-06-08T02:30:47.441Z,69.52
2017-06-08T02:31:27.942Z,69.62
2017-06-08T02:32:08.271Z,69.23
2017-06-08T02:32:48.717Z,68.85
2017-06-08T02:33:29.145Z,69.14
2017-06-08T02:34:09.539Z,69.14
2017-06-08T02:34:49.922Z,68.95
2017-06-08T02:35:30.318Z,69.14
2017-06-08T02:36:10.714Z,69.23
2017-06-08T02:36:51.120Z,69.23
2017-06-08T02:37:31.521Z,69.14
2017-06-08T02:38:11.922Z,69.14
2017-06-08T02:38:52.641Z,69.33
2017-06-08T02:39:32.779Z,69.04
2017-06-08T02:40:13.163Z,69.04
2017-06-08T02:40:53.656Z,69.14
2017-06-08T02:41:34.017Z,68.85
2017-06-08T02:42:14.419Z,69.33
2017-06-08T02:42:54.875Z,69.52
2017-06-08T02:43:35.227Z,69.52
2017-06-08T02:44:15.644Z,69.52
2017-06-08T02:44:55.997Z,69.04
2017-06-08T02:45:36.499Z,69.14
2017-06-08T02:46:16.864Z,69.04
2017-06-08T02:46:57.258Z,69.33
2017-06-08T02:47:37.659Z,69.81
2017-06-08T02:48:18.099Z,69.23
2017-06-08T02:48:58.466Z,69.62
2017-06-08T02:49:38.941Z,69.52
2017-06-08T02:50:19.377Z,69.62
2017-06-08T02:50:59.774Z,69.62
2017-06-08T02:51:40.212Z,69.62
2017-06-08T02:52:20.624Z,69.58
2017-06-08T02:53:01.071Z,69.52
2017-06-08T02:53:41.487Z,69.71
2017-06-08T02:54:21.878Z,69.87
2017-06-08T02:55:02.363Z,69.81
2017-06-08T02:55:42.799Z,69.29
2017-06-08T02:56:23.179Z,69.29
2017-06-08T02:57:03.587Z,69.48
2017-06-08T02:57:44.092Z,69.48
2017-06-08T02:58:24.501Z,69.68
2017-06-08T02:59:04.916Z,69.48
2017-06-08T02:59:45.330Z,69.68
2017-06-08T03:00:25.718Z,69.77
2017-06-08T03:01:06.198Z,69.77
2017-06-08T03:01:46.603Z,69.96
2017-06-08T03:02:27.071Z,69.77
2017-06-08T03:03:07.470Z,69.96
2017-06-08T03:03:47.869Z,69.77
2017-06-08T03:04:28.279Z,69.87
2017-06-08T03:05:08.698Z,69.87
2017-06-08T03:05:49.286Z,69.58
2017-06-08T03:06:29.705Z,69.87
2017-06-08T03:07:10.108Z,69.77
2017-06-08T03:07:50.517Z,69.39
2017-06-08T03:08:30.879Z,69.77
2017-06-08T03:09:11.284Z,69.87
2017-06-08T03:09:51.703Z,70.06
2017-06-08T03:10:32.106Z,69.77
2017-06-08T03:11:12.506Z,69.77
2017-06-08T03:11:52.933Z,69.87
2017-06-08T03:12:33.333Z,69.77
2017-06-08T03:13:13.773Z,69.87
2017-06-08T03:13:54.244Z,69.87
2017-06-08T03:14:34.646Z,69.96
2017-06-08T03:15:15.075Z,70.06
2017-06-08T03:15:55.466Z,69.96
2017-06-08T03:16:35.826Z,70.15
2017-06-08T03:17:16.238Z,70.06
2017-06-08T03:17:56.772Z,69.87
2017-06-08T03:18:37.134Z,69.96
2017-06-08T03:19:17.513Z,70.06
2017-06-08T03:19:57.915Z,69.87
2017-06-08T03:20:38.314Z,69.96
2017-06-08T03:21:18.690Z,70.44
2017-06-08T03:21:59.109Z,70.44
2017-06-08T03:22:39.603Z,70.06
2017-06-08T03:23:19.985Z,70.15
2017-06-08T03:24:00.414Z,70.06
2017-06-08T03:24:40.823Z,70.06
2017-06-08T03:25:21.219Z,70.06
2017-06-08T03:26:01.670Z,70.25
2017-06-08T03:26:42.039Z,70.15
2017-06-08T03:27:22.425Z,70.25
2017-06-08T03:28:02.869Z,69.96
2017-06-08T03:28:43.250Z,70.06
2017-06-08T03:29:23.651Z,70.25
2017-06-08T03:30:04.087Z,70.63
2017-06-08T03:30:44.547Z,70.72
2017-06-08T03:31:24.959Z,70.72
2017-06-08T03:32:05.359Z,70.63
2017-06-08T03:32:45.766Z,70.63
2017-06-08T03:33:26.151Z,70.63
2017-06-08T03:34:06.607Z,70.44
2017-06-08T03:34:47.606Z,70.34
2017-06-08T03:35:28.066Z,70.44
2017-06-08T03:36:08.464Z,70.53
2017-06-08T03:36:48.906Z,70.44
2017-06-08T03:37:29.338Z,70.53
2017-06-08T03:38:09.690Z,70.53
2017-06-08T03:38:50.049Z,70.47
2017-06-08T03:39:30.492Z,70.63
2017-06-08T03:40:10.949Z,70.67
2017-06-08T03:40:52.175Z,70.57
2017-06-08T03:41:32.505Z,70.67
2017-06-08T03:42:12.964Z,70.76
2017-06-08T03:42:53.425Z,70.67
2017-06-08T03:43:33.766Z,70.28
2017-06-08T03:44:14.267Z,70.19
2017-06-08T03:44:54.624Z,70.28
2017-06-08T03:45:35.083Z,70
2017-06-08T03:46:15.473Z,70.09
2017-06-08T03:46:55.964Z,69.9
2017-06-08T03:47:36.346Z,70.19
2017-06-08T03:48:18.377Z,70.19
2017-06-08T03:48:58.780Z,70.19
2017-06-08T03:49:39.162Z,70.28
2017-06-08T03:50:19.606Z,70.19
2017-06-08T03:51:00.052Z,70.28
2017-06-08T03:51:40.492Z,70
2017-06-08T03:52:22.392Z,70.28
2017-06-08T03:53:02.678Z,70.28
2017-06-08T03:53:43.110Z,70
2017-06-08T03:54:23.556Z,70.09
2017-06-08T03:55:03.994Z,70.09
2017-06-08T03:55:44.428Z,69.81
2017-06-08T03:56:24.801Z,70.19
2017-06-08T03:57:05.243Z,70.09
2017-06-08T03:57:45.649Z,70
2017-06-08T03:58:26.175Z,69.9
2017-06-08T03:59:06.598Z,70
2017-06-08T03:59:46.985Z,70
2017-06-08T04:00:27.444Z,69.9
2017-06-08T04:01:07.853Z,70.09
2017-06-08T04:01:48.303Z,69.9
2017-06-08T04:02:28.721Z,70
2017-06-08T04:03:09.120Z,70.09
2017-06-08T04:03:49.537Z,70
2017-06-08T04:04:29.918Z,70.09
2017-06-08T04:05:10.334Z,70.09
2017-06-08T04:05:50.821Z,70
2017-06-08T04:06:31.201Z,70.09
2017-06-08T04:07:11.608Z,70
2017-06-08T04:07:51.974Z,70
2017-06-08T04:08:32.407Z,70.09
2017-06-08T04:09:12.953Z,70.09
2017-06-08T04:09:53.294Z,70
2017-06-08T04:10:33.773Z,69.9
2017-06-08T04:11:14.237Z,69.84
2017-06-08T04:11:54.613Z,69.93
2017-06-08T04:12:35.054Z,69.65
2017-06-08T04:13:15.460Z,69.65
2017-06-08T04:13:55.864Z,69.74
2017-06-08T04:14:36.254Z,69.74
2017-06-08T04:15:16.680Z,69.65
2017-06-08T04:15:57.149Z,69.56
2017-06-08T04:16:37.569Z,69.37
2017-06-08T04:17:18.026Z,69.84
2017-06-08T04:17:58.478Z,69.74
2017-06-08T04:18:38.846Z,69.84
2017-06-08T04:19:19.291Z,69.56
2017-06-08T04:19:59.792Z,69.65
2017-06-08T04:20:40.165Z,69.08
2017-06-08T04:21:20.588Z,69.17
2017-06-08T04:22:01.021Z,69.27
2017-06-08T04:22:41.401Z,69.37
2017-06-08T04:23:21.855Z,69.08
2017-06-08T04:24:02.271Z,69.46
2017-06-08T04:24:42.701Z,69.17
2017-06-08T04:25:23.087Z,69.56
2017-06-08T04:26:03.581Z,69.56
2017-06-08T04:26:44.009Z,69.56
2017-06-08T04:27:24.407Z,68.88
2017-06-08T04:28:04.804Z,69.08
2017-06-08T04:28:45.223Z,69.08
2017-06-08T04:29:25.632Z,69.08
2017-06-08T04:30:06.073Z,69.08
2017-06-08T04:30:46.529Z,69.08
2017-06-08T04:31:26.935Z,69.08
2017-06-08T04:32:07.289Z,69.17
2017-06-08T04:32:47.845Z,69.08
2017-06-08T04:33:28.257Z,69.17
2017-06-08T04:34:08.622Z,68.88
2017-06-08T04:34:49.052Z,69.17
2017-06-08T04:35:29.481Z,69.17
2017-06-08T04:36:09.850Z,69.11
2017-06-08T04:36:50.459Z,69.21
2017-06-08T04:37:31.169Z,69.21
2017-06-08T04:38:11.601Z,69.02
2017-06-08T04:38:52.042Z,68.92
2017-06-08T04:39:32.471Z,69.02
2017-06-08T04:40:12.983Z,68.82
2017-06-08T04:40:53.475Z,69.11
2017-06-08T04:41:33.751Z,68.92
2017-06-08T04:42:14.200Z,68.92
2017-06-08T04:42:54.563Z,69.11
2017-06-08T04:43:35.023Z,69.02
2017-06-08T04:44:15.463Z,68.82
2017-06-08T04:44:55.854Z,68.73
2017-06-08T04:45:36.301Z,68.82
2017-06-08T04:46:16.680Z,68.92
2017-06-08T04:46:57.187Z,69.11
2017-06-08T04:47:37.497Z,68.92
2017-06-08T04:48:17.925Z,68.92
2017-06-08T04:48:58.363Z,68.82
2017-06-08T04:49:38.723Z,68.54
2017-06-08T04:50:19.168Z,68.44
2017-06-08T04:50:59.575Z,68.06
2017-06-08T04:51:39.969Z,68.26
2017-06-08T04:52:20.350Z,68.06
2017-06-08T04:53:00.803Z,68.41
2017-06-08T04:53:41.214Z,68.82
2017-06-08T04:54:21.664Z,68.7
2017-06-08T04:55:02.353Z,68.98
2017-06-08T04:55:42.747Z,68.88
2017-06-08T04:56:23.172Z,68.6
2017-06-08T04:57:03.538Z,69.08
2017-06-08T04:57:43.920Z,68.88
2017-06-08T04:58:24.547Z,68.88
2017-06-08T04:59:05.065Z,68.88
2017-06-08T04:59:45.515Z,68.98
2017-06-08T05:00:25.903Z,68.88
2017-06-08T05:01:06.336Z,69.27
2017-06-08T05:01:46.761Z,69.08
2017-06-08T05:02:27.190Z,69.37
2017-06-08T05:03:07.603Z,69.46
2017-06-08T05:03:48.044Z,69.27
2017-06-08T05:04:28.427Z,69.27
2017-06-08T05:05:08.797Z,69.17
2017-06-08T05:05:49.214Z,69.27
2017-06-08T05:06:29.614Z,69.37
2017-06-08T05:07:10.075Z,69.08
2017-06-08T05:07:50.500Z,69.08
2017-06-08T05:08:32.457Z,69.37
2017-06-08T05:09:12.901Z,69.17
2017-06-08T05:09:53.295Z,69.17
2017-06-08T05:10:33.767Z,69.74
2017-06-08T05:11:14.197Z,69.84
2017-06-08T05:11:54.635Z,69.17
2017-06-08T05:12:35.088Z,69.11
2017-06-08T05:13:15.474Z,69.31
2017-06-08T05:13:56.078Z,69.11
2017-06-08T05:14:36.481Z,68.92
2017-06-08T05:15:16.806Z,69.31
2017-06-08T05:15:57.251Z,68.73
2017-06-08T05:16:37.675Z,68.57
2017-06-08T05:17:18.074Z,68.57
2017-06-08T05:17:58.468Z,68.57
2017-06-08T05:18:38.846Z,68.29
2017-06-08T05:19:19.248Z,67.75
2017-06-08T05:19:59.711Z,67.84
2017-06-08T05:20:40.148Z,67.46
2017-06-08T05:21:20.500Z,67.46
2017-06-08T05:22:00.943Z,66.99
2017-06-08T05:22:41.691Z,67.08
2017-06-08T05:23:22.107Z,66.63
2017-06-08T05:24:02.556Z,66.73
2017-06-08T05:24:42.986Z,66.63
2017-06-08T05:25:23.382Z,66.73
2017-06-08T05:26:03.779Z,66.35
2017-06-08T05:26:44.239Z,66.44
2017-06-08T05:27:24.682Z,66.25
2017-06-08T05:28:05.172Z,66.35
2017-06-08T05:28:45.577Z,66.54
2017-06-08T05:29:26.096Z,66.54
2017-06-08T05:30:06.484Z,66.16
2017-06-08T05:30:46.905Z,65.9
2017-06-08T05:31:27.362Z,65.81
2017-06-08T05:32:07.783Z,65.58
2017-06-08T05:32:48.206Z,65.11
2017-06-08T05:33:28.602Z,65.39
2017-06-08T05:34:08.993Z,65.3
2017-06-08T05:34:49.471Z,65.97
2017-06-08T05:35:29.893Z,65.58
2017-06-08T05:36:10.327Z,65.68
2017-06-08T05:36:50.766Z,65.87
2017-06-08T05:37:31.124Z,65.97
2017-06-08T05:38:11.533Z,65.77
2017-06-08T05:38:51.971Z,66.25
2017-06-08T05:39:32.444Z,66.16
2017-06-08T05:40:12.835Z,66.16
2017-06-08T05:40:53.392Z,66.25
2017-06-08T05:41:33.785Z,66.25
2017-06-08T05:42:14.110Z,66.06
2017-06-08T05:42:54.512Z,66.16
2017-06-08T05:43:34.971Z,66.06
2017-06-08T05:44:15.379Z,66.06
2017-06-08T05:44:55.905Z,66.16
2017-06-08T05:45:36.267Z,66.16
2017-06-08T05:46:17.149Z,66.16
2017-06-08T05:46:57.565Z,66.25
2017-06-08T05:47:38.508Z,66.16
2017-06-08T05:48:18.922Z,66.16
2017-06-08T05:48:59.328Z,65.68
2017-06-08T05:49:39.735Z,66.25
2017-06-08T05:50:20.144Z,66.03
2017-06-08T05:51:00.615Z,65.84
2017-06-08T05:51:42.293Z,65.97
2017-06-08T05:52:22.732Z,65.87
2017-06-08T05:53:03.129Z,65.64
2017-06-08T05:53:43.502Z,65.64
2017-06-08T05:54:23.942Z,65.84
2017-06-08T05:55:04.300Z,65.93
2017-06-08T05:55:44.787Z,65.64
2017-06-08T05:56:25.135Z,65.58
2017-06-08T05:57:05.540Z,65.84
2017-06-08T05:57:45.985Z,65.58
2017-06-08T05:58:26.368Z,65.68
2017-06-08T05:59:06.850Z,65.87
2017-06-08T05:59:47.248Z,65.39
2017-06-08T06:00:27.662Z,65.39
2017-06-08T06:01:08.053Z,65.39
2017-06-08T06:01:48.441Z,64.91
2017-06-08T06:02:28.849Z,64.82
2017-06-08T06:03:09.414Z,65.11
2017-06-08T06:03:49.830Z,64.82
2017-06-08T06:04:30.296Z,64.53
2017-06-08T06:05:10.688Z,64.62
2017-06-08T06:05:51.120Z,64.82
2017-06-08T06:06:31.476Z,64.82
2017-06-08T06:07:11.979Z,64.53
2017-06-08T06:07:52.448Z,64.62
2017-06-08T06:08:32.766Z,64.34
2017-06-08T06:09:13.208Z,64.62
2017-06-08T06:09:53.637Z,64.62
2017-06-08T06:10:33.986Z,64.85
2017-06-08T06:11:14.404Z,64.95
2017-06-08T06:11:54.819Z,64.37
2017-06-08T06:12:35.253Z,64.28
2017-06-08T06:13:15.860Z,64.12
2017-06-08T06:13:56.271Z,63.83
2017-06-08T06:14:36.692Z,63.35
2017-06-08T06:15:17.134Z,62.97
2017-06-08T06:15:57.581Z,63.29
2017-06-08T06:16:37.980Z,62.87
2017-06-08T06:17:18.364Z,62.71
2017-06-08T06:17:58.782Z,62.43
2017-06-08T06:18:39.203Z,62.33
2017-06-08T06:19:19.601Z,62.33
2017-06-08T06:20:00.058Z,62.33
2017-06-08T06:20:40.835Z,62.52
2017-06-08T06:21:21.223Z,62.43
2017-06-08T06:22:01.659Z,62.52
2017-06-08T06:22:42.050Z,62.71
2017-06-08T06:23:22.540Z,62.77
2017-06-08T06:24:02.899Z,62.81
2017-06-08T06:24:43.270Z,63.1
2017-06-08T06:25:23.730Z,63.1
2017-06-08T06:26:04.075Z,63
2017-06-08T06:26:44.534Z,62.9
2017-06-08T06:27:24.909Z,63
2017-06-08T06:28:05.403Z,63
2017-06-08T06:28:45.854Z,62.71
2017-06-08T06:29:26.352Z,62.65
2017-06-08T06:30:06.716Z,62.55
2017-06-08T06:30:47.116Z,62.84
2017-06-08T06:31:28.496Z,62.36
2017-06-08T06:32:08.924Z,62.07
2017-06-08T06:32:49.282Z,61.79
2017-06-08T06:33:29.774Z,62.07
2017-06-08T06:34:10.180Z,61.79
2017-06-08T06:34:50.593Z,61.79
2017-06-08T06:35:31.013Z,61.72
2017-06-08T06:36:11.394Z,61.5
2017-06-08T06:36:51.854Z,61.63
2017-06-08T06:37:32.294Z,61.69
2017-06-08T06:38:12.682Z,61.63
2017-06-08T06:38:53.099Z,61.43
2017-06-08T06:39:33.499Z,61.43
2017-06-08T06:40:13.940Z,61.34
2017-06-08T06:40:54.321Z,61.24
2017-06-08T06:41:34.785Z,61.34
2017-06-08T06:42:15.223Z,61.82
2017-06-08T06:42:55.668Z,61.15
2017-06-08T06:43:36.068Z,61.24
2017-06-08T06:44:16.495Z,60.76
2017-06-08T06:44:56.940Z,61.24
2017-06-08T06:45:37.326Z,60.86
2017-06-08T06:46:17.746Z,61.18
2017-06-08T06:46:58.161Z,60.41
2017-06-08T06:47:38.537Z,60.6
2017-06-08T06:48:18.967Z,60.22
2017-06-08T06:48:59.380Z,60.25
2017-06-08T06:49:39.817Z,59.77
2017-06-08T06:50:20.226Z,59.48
2017-06-08T06:51:00.609Z,59.29
2017-06-08T06:51:41.023Z,59.48
2017-06-08T06:52:21.429Z,59.29
2017-06-08T06:53:01.914Z,58.71
2017-06-08T06:53:42.249Z,58.45
2017-06-08T06:54:22.709Z,58.84
2017-06-08T06:55:03.054Z,58.74
2017-06-08T06:55:43.483Z,58.71
2017-06-08T06:56:23.924Z,58.62
2017-06-08T06:57:04.355Z,58.81
2017-06-08T06:57:44.783Z,58.81
2017-06-08T06:58:25.202Z,58.52
2017-06-08T06:59:05.633Z,58.62
2017-06-08T06:59:46.011Z,59.38
2017-06-08T07:00:26.443Z,59.48
2017-06-08T07:01:06.855Z,59.64
2017-06-08T07:01:47.247Z,59.38
2017-06-08T07:02:27.656Z,59.45
2017-06-08T07:03:08.111Z,59.26
2017-06-08T07:03:48.526Z,59.36
2017-06-08T07:04:28.970Z,59.26
2017-06-08T07:05:09.389Z,59.29
2017-06-08T07:05:49.732Z,59.29
2017-06-08T07:06:30.194Z,59.48
2017-06-08T07:07:10.603Z,59.19
2017-06-08T07:07:50.983Z,59.12
2017-06-08T07:08:31.434Z,58.84
2017-06-08T07:09:11.844Z,58.55
2017-06-08T07:09:52.282Z,58.1
2017-06-08T07:10:32.686Z,58.48
2017-06-08T07:11:13.122Z,58
2017-06-08T07:11:53.530Z,57.84
2017-06-08T07:12:33.944Z,57.17
2017-06-08T07:13:14.351Z,56.59
2017-06-08T07:13:54.762Z,56.4
2017-06-08T07:14:35.136Z,56.68
2017-06-08T07:15:15.646Z,56.88
2017-06-08T07:15:56.107Z,56.3
2017-06-08T07:16:36.531Z,56.4
2017-06-08T07:17:16.943Z,56.3
2017-06-08T07:17:57.370Z,56.21
2017-06-08T07:18:37.777Z,56.01
2017-06-08T07:19:18.165Z,56.21
2017-06-08T07:19:58.588Z,56.21
2017-06-08T07:20:39.027Z,56.3
2017-06-08T07:21:19.423Z,56.4
2017-06-08T07:21:59.872Z,56.4
2017-06-08T07:22:40.297Z,56.43
2017-06-08T07:23:20.755Z,56.59
2017-06-08T07:24:01.197Z,56.23
2017-06-08T07:24:41.577Z,56.52
2017-06-08T07:25:21.974Z,56.43
2017-06-08T07:26:02.522Z,55.66
2017-06-08T07:26:42.918Z,56.04
2017-06-08T07:27:23.372Z,56.14
2017-06-08T07:28:03.779Z,56.16
2017-06-08T07:28:44.178Z,56.16
2017-06-08T07:29:24.582Z,55.81
2017-06-08T07:30:04.984Z,55.62
2017-06-08T07:30:45.394Z,54.8
2017-06-08T07:31:25.775Z,53.96
2017-06-08T07:32:06.229Z,53.51
2017-06-08T07:32:46.668Z,52.59
2017-06-08T07:33:27.059Z,51.95
2017-06-08T07:34:07.476Z,50.52
2017-06-08T07:34:47.905Z,49.97
2017-06-08T07:35:28.286Z,49.22
2017-06-08T07:36:08.752Z,48.66
2017-06-08T07:36:49.200Z,48.47
2017-06-08T07:38:37.297Z,47.6
2017-06-08T07:39:17.643Z,47.99
2017-06-08T07:39:58.054Z,47.79
2017-06-08T07:40:38.470Z,47.67
2017-06-08T07:41:18.920Z,48.35
2017-06-08T07:41:59.393Z,47.94
2017-06-08T07:42:39.768Z,48.42
2017-06-08T07:43:20.146Z,48.59
2017-06-08T07:44:00.581Z,48.69
2017-06-08T07:44:40.958Z,49.17
2017-06-08T07:45:21.393Z,49.05
2017-06-08T07:46:01.781Z,49.34
2017-06-08T07:47:54.777Z,49.63
2017-06-08T07:48:35.083Z,49.65
2017-06-08T07:49:15.496Z,49.07
2017-06-08T07:49:55.918Z,48.61
2017-06-08T07:50:36.329Z,47.89
2017-06-08T07:51:16.742Z,47.91
2017-06-08T07:51:57.257Z,46.87
2017-06-08T07:52:37.585Z,45.92
2017-06-08T07:53:18.049Z,45.58
2017-06-08T07:53:58.475Z,44.54
2017-06-08T07:54:38.891Z,43.95
2017-06-08T07:55:19.256Z,43.47
2017-06-08T07:55:59.724Z,43.47
2017-06-08T07:56:40.293Z,43.18
2017-06-08T07:57:20.711Z,43.66
2017-06-08T07:58:01.116Z,43.45
2017-06-08T07:58:41.543Z,43.35
2017-06-08T07:59:22.057Z,43.82
2017-06-08T08:00:02.449Z,43.89
2017-06-08T08:00:42.827Z,44.45
2017-06-08T08:01:23.294Z,44.93
2017-06-08T08:02:03.682Z,45.22
2017-06-08T08:02:44.059Z,44.86
2017-06-08T08:03:24.517Z,44.84
2017-06-08T08:04:04.899Z,44.93
2017-06-08T08:04:45.315Z,44.54
2017-06-08T08:05:25.733Z,45.3
2017-06-08T08:06:06.136Z,45.01
2017-06-08T08:06:46.548Z,44.81
2017-06-08T08:07:26.983Z,45.1
2017-06-08T08:08:07.368Z,45.01
2017-06-08T08:08:47.789Z,45.01
2017-06-08T08:09:28.160Z,44.79
2017-06-08T08:10:08.614Z,44.7
2017-06-08T08:10:48.975Z,44.5
2017-06-08T08:11:29.426Z,44.89
2017-06-08T08:12:09.811Z,44.98
2017-06-08T08:12:50.245Z,44.23
2017-06-08T08:13:30.622Z,44.33
2017-06-08T08:14:11.061Z,43.77
2017-06-08T08:14:51.501Z,43.21
2017-06-08T08:15:31.876Z,43.23
2017-06-08T08:16:12.284Z,42.38
2017-06-08T08:16:52.717Z,41.7
2017-06-08T08:17:33.098Z,41.24
2017-06-08T08:18:13.487Z,40.08
2017-06-08T08:18:53.947Z,39.22
2017-06-08T08:19:34.397Z,38.83
2017-06-08T08:20:14.762Z,39.12
2017-06-08T08:20:55.172Z,38.93
2017-06-08T08:21:35.638Z,38.95
2017-06-08T08:22:16.089Z,38.57
2017-06-08T08:22:56.468Z,38.7
2017-06-08T08:23:36.932Z,37.72
2017-06-08T08:24:17.331Z,36.96
2017-06-08T08:24:57.809Z,36.77
2017-06-08T08:25:38.177Z,36.57
2017-06-08T08:26:18.585Z,36.57
2017-06-08T08:26:59.051Z,36.67
2017-06-08T08:27:39.492Z,36.47
2017-06-08T08:28:19.884Z,36.28
2017-06-08T08:29:00.339Z,36.18
2017-06-08T08:29:40.804Z,36.28
2017-06-08T08:30:21.186Z,35.8
2017-06-08T08:31:01.621Z,35.97
2017-06-08T08:31:42.083Z,35.68
2017-06-08T08:32:22.481Z,35.66
2017-06-08T08:33:02.922Z,36.15
2017-06-08T08:33:43.315Z,36.32
2017-06-08T08:34:23.715Z,36.22
2017-06-08T08:35:04.114Z,36.21
2017-06-08T08:35:44.526Z,36.87
2017-06-08T08:36:24.930Z,36.87
2017-06-08T08:37:05.389Z,36.87
2017-06-08T08:37:45.755Z,36.87
2017-06-08T08:38:26.169Z,36.99
2017-06-08T08:39:06.692Z,36.99
2017-06-08T08:39:47.418Z,36.91
2017-06-08T08:40:27.845Z,36.61
2017-06-08T08:41:08.253Z,36.44
2017-06-08T08:41:48.728Z,35.96
2017-06-08T08:42:29.150Z,35.96
2017-06-08T08:43:09.589Z,35.76
2017-06-08T08:43:49.984Z,35.37
2017-06-08T08:44:30.388Z,35.27
2017-06-08T08:45:10.879Z,35.47